This is the latest recevied weather packets stored in our database for station/object W1HS. If no packets are shown the sender has not sent any weather packets the latest 10 day(s).
| Time | Temp. | Humidity | Pressure | Rain* | Wind** | Luminosity | Snow |
|---|---|---|---|---|---|---|---|
| 1777839922 | 8.89° C | 45% | 987.5 hPa | 0 mm | - | 220 W/m² | - |
| 1777839320 | 8.89° C | 45% | 987.4 hPa | 0 mm | - | 248 W/m² | - |
| 1777838718 | 8.89° C | 46% | 987.4 hPa | 0 mm | - | 282 W/m² | - |
| 1777838120 | 8.89° C | 47% | 987.5 hPa | 0 mm | - | 243 W/m² | - |
| 1777837520 | 8.89° C | 48% | 987.6 hPa | 0 mm | - | 427 W/m² | - |
| 1777836920 | 8.33° C | 47% | 987.6 hPa | 0 mm | - | 371 W/m² | - |
| 1777836322 | 8.33° C | 46% | 987.6 hPa | 0 mm | - | 279 W/m² | - |
| 1777835720 | 8.33° C | 45% | 987.6 hPa | 0 mm | - | 253 W/m² | - |
| 1777835122 | 8.33° C | 45% | 987.6 hPa | 0 mm | - | 385 W/m² | - |
| 1777834583 | 8.33° C | 47% | 987.6 hPa | 0 mm | - | 390 W/m² | - |
| 1777834040 | 7.78° C | 46% | 987.6 hPa | 0 mm | - | 339 W/m² | - |
| 1777833440 | 8.33° C | 46% | 987.6 hPa | 0 mm | - | 294 W/m² | - |
| 1777832839 | 8.33° C | 46% | 987.5 hPa | 0 mm | - | 241 W/m² | - |
| 1777832240 | 8.89° C | 45% | 987.3 hPa | 0 mm | - | 294 W/m² | - |
| 1777831639 | 9.44° C | 45% | 987.3 hPa | 0 mm | - | 330 W/m² | - |
| 1777831039 | 9.44° C | 44% | 987.2 hPa | 0 mm | - | 367 W/m² | - |
| 1777830440 | 8.89° C | 43% | 987.1 hPa | 0 mm | - | 353 W/m² | - |
| 1777829970 | 8.33° C | 42% | 987.1 hPa | 0 mm | - | 431 W/m² | - |
| 1777829241 | 8.33° C | 46% | 987.2 hPa | 0 mm | - | 443 W/m² | - |
| 1777828725 | 8.89° C | 43% | 987.1 hPa | 0 mm | - | 526 W/m² | - |
| 1777827562 | 8.89° C | 44% | 987.1 hPa | 0 mm | - | 380 W/m² | - |
| 1777827166 | 8.33° C | 47% | 987.1 hPa | 0 mm | - | 468 W/m² | - |
| 1777826899 | 8.33° C | 45% | 987.1 hPa | 0 mm | - | 473 W/m² | - |
| 1777826305 | 8.33° C | 44% | 987.2 hPa | 0 mm | - | 469 W/m² | - |
| 1777825768 | 8.33° C | 53% | 987.3 hPa | 0 mm | - | 272 W/m² | - |
* Rain latest hour (hover to see other rain measurements)
** Current wind speed in m/s (hover to see current wind gust speed)